West Coxsackie, New York
Current Conditions -  °F | °C
As of 10:51 AM on Thursday 30 Oct 2014 (Local Time) from KALB Reporting Station
Broken Clouds Broken Clouds  
Wind Chill: 50°   Ceiling: 3900
Heat Index: 50°   Visibility: 10mi
Dew Point: 38°   Wind: 12mph
Humidity: 63%   Direction: 310°NW
Pressure: 29.99"   Gusts: NA
Location:  42.36°N, 73.82°W
Report Text: KALB 301451Z 31010KT 10SM SCT030 BKN039 10/03 A2999 RMK AO2 SLP158 T01000033 50005
Loading
Personal Weather Stations






























Interactive Weather Map New forecast layout! Learn more

10-Day Weather Forecast

Advertisements
Track Severe Weather on mobile